sensor_id;sensor_type;location;lat;lon;timestamp;temperature;humidity
33428;DHT22;19769;48.150;16.306;2023-02-15T00:01:10;6.20;99.90
33428;DHT22;19769;48.150;16.306;2023-02-15T00:03:36;6.20;99.90
33428;DHT22;19769;48.150;16.306;2023-02-15T00:06:02;6.20;99.90
33428;DHT22;19769;48.150;16.306;2023-02-15T00:08:28;6.20;99.90
33428;DHT22;19769;48.150;16.306;2023-02-15T00:11:02;6.10;99.90
33428;DHT22;19769;48.150;16.306;2023-02-15T00:13:28;6.10;99.90
33428;DHT22;19769;48.150;16.306;2023-02-15T00:15:54;6.10;99.90
33428;DHT22;19769;48.150;16.306;2023-02-15T00:18:19;6.10;99.90
33428;DHT22;19769;48.150;16.306;2023-02-15T00:20:45;6.10;99.90
33428;DHT22;19769;48.150;16.306;2023-02-15T00:23:11;6.10;99.90
33428;DHT22;19769;48.150;16.306;2023-02-15T00:25:36;6.10;99.90
33428;DHT22;19769;48.150;16.306;2023-02-15T00:28:02;6.10;99.90
33428;DHT22;19769;48.150;16.306;2023-02-15T00:30:28;6.10;99.90
33428;DHT22;19769;48.150;16.306;2023-02-15T00:32:54;6.10;99.90
33428;DHT22;19769;48.150;16.306;2023-02-15T00:35:19;6.00;99.90
33428;DHT22;19769;48.150;16.306;2023-02-15T00:37:45;6.00;99.90
33428;DHT22;19769;48.150;16.306;2023-02-15T00:40:11;6.00;99.90
33428;DHT22;19769;48.150;16.306;2023-02-15T00:42:36;6.00;99.90
33428;DHT22;19769;48.150;16.306;2023-02-15T00:45:02;6.00;99.90
33428;DHT22;19769;48.150;16.306;2023-02-15T00:47:28;6.00;99.90
33428;DHT22;19769;48.150;16.306;2023-02-15T00:49:53;6.00;99.90
33428;DHT22;19769;48.150;16.306;2023-02-15T00:52:19;6.00;99.90
33428;DHT22;19769;48.150;16.306;2023-02-15T00:54:45;6.00;99.90
33428;DHT22;19769;48.150;16.306;2023-02-15T00:57:11;6.00;99.90
33428;DHT22;19769;48.150;16.306;2023-02-15T00:59:36;6.00;99.90
33428;DHT22;19769;48.150;16.306;2023-02-15T01:02:02;6.00;99.90
33428;DHT22;19769;48.150;16.306;2023-02-15T01:04:28;6.00;99.90
33428;DHT22;19769;48.150;16.306;2023-02-15T01:06:56;6.00;99.90
33428;DHT22;19769;48.150;16.306;2023-02-15T01:09:21;6.00;99.90
33428;DHT22;19769;48.150;16.306;2023-02-15T01:11:47;5.90;99.90
33428;DHT22;19769;48.150;16.306;2023-02-15T01:14:13;5.90;99.90
33428;DHT22;19769;48.150;16.306;2023-02-15T01:16:40;5.90;99.90
33428;DHT22;19769;48.150;16.306;2023-02-15T01:19:06;6.00;99.90
33428;DHT22;19769;48.150;16.306;2023-02-15T01:21:32;5.90;99.90
33428;DHT22;19769;48.150;16.306;2023-02-15T01:24:00;5.80;99.90
33428;DHT22;19769;48.150;16.306;2023-02-15T01:26:26;5.80;99.90
33428;DHT22;19769;48.150;16.306;2023-02-15T01:28:51;5.80;99.90
33428;DHT22;19769;48.150;16.306;2023-02-15T01:31:18;5.90;99.90
33428;DHT22;19769;48.150;16.306;2023-02-15T01:33:45;5.90;99.90
33428;DHT22;19769;48.150;16.306;2023-02-15T01:36:11;5.90;99.90
33428;DHT22;19769;48.150;16.306;2023-02-15T01:38:37;5.90;99.90
33428;DHT22;19769;48.150;16.306;2023-02-15T01:41:05;5.90;99.90
33428;DHT22;19769;48.150;16.306;2023-02-15T01:43:49;5.90;99.90
33428;DHT22;19769;48.150;16.306;2023-02-15T01:46:19;5.90;99.90
33428;DHT22;19769;48.150;16.306;2023-02-15T01:48:48;5.90;99.90
33428;DHT22;19769;48.150;16.306;2023-02-15T01:51:17;5.80;99.90
33428;DHT22;19769;48.150;16.306;2023-02-15T01:53:47;5.80;99.90
33428;DHT22;19769;48.150;16.306;2023-02-15T01:56:35;5.90;99.90
33428;DHT22;19769;48.150;16.306;2023-02-15T01:59:00;5.90;99.90
33428;DHT22;19769;48.150;16.306;2023-02-15T02:01:28;5.90;99.90
33428;DHT22;19769;48.150;16.306;2023-02-15T02:06:29;6.00;99.90
33428;DHT22;19769;48.150;16.306;2023-02-15T02:08:56;6.00;99.90
33428;DHT22;19769;48.150;16.306;2023-02-15T02:11:22;5.90;99.90
33428;DHT22;19769;48.150;16.306;2023-02-15T02:13:48;6.00;99.90
33428;DHT22;19769;48.150;16.306;2023-02-15T02:18:45;6.00;99.90
33428;DHT22;19769;48.150;16.306;2023-02-15T02:23:48;6.10;99.90
33428;DHT22;19769;48.150;16.306;2023-02-15T02:34:46;6.00;99.90
33428;DHT22;19769;48.150;16.306;2023-02-15T02:44:57;5.90;99.90
33428;DHT22;19769;48.150;16.306;2023-02-15T02:49:58;5.80;99.90
33428;DHT22;19769;48.150;16.306;2023-02-15T02:54:59;5.70;99.90
33428;DHT22;19769;48.150;16.306;2023-02-15T02:57:25;5.50;99.90
33428;DHT22;19769;48.150;16.306;2023-02-15T02:59:52;5.50;99.90
33428;DHT22;19769;48.150;16.306;2023-02-15T03:02:22;5.50;99.90
33428;DHT22;19769;48.150;16.306;2023-02-15T03:04:51;5.50;99.90
33428;DHT22;19769;48.150;16.306;2023-02-15T03:07:24;5.50;99.90
33428;DHT22;19769;48.150;16.306;2023-02-15T03:09:54;5.50;99.90
33428;DHT22;19769;48.150;16.306;2023-02-15T03:12:23;5.40;99.90
33428;DHT22;19769;48.150;16.306;2023-02-15T03:14:51;5.50;99.90
33428;DHT22;19769;48.150;16.306;2023-02-15T03:17:19;5.40;99.90
33428;DHT22;19769;48.150;16.306;2023-02-15T03:19:45;5.40;99.90
33428;DHT22;19769;48.150;16.306;2023-02-15T03:24:41;5.50;99.90
33428;DHT22;19769;48.150;16.306;2023-02-15T03:27:12;5.60;99.90
33428;DHT22;19769;48.150;16.306;2023-02-15T03:29:44;5.60;99.90
33428;DHT22;19769;48.150;16.306;2023-02-15T03:32:11;5.60;99.90
33428;DHT22;19769;48.150;16.306;2023-02-15T03:34:37;5.60;99.90
33428;DHT22;19769;48.150;16.306;2023-02-15T03:39:39;5.70;99.90
33428;DHT22;19769;48.150;16.306;2023-02-15T03:42:15;5.70;99.90
33428;DHT22;19769;48.150;16.306;2023-02-15T03:44:54;5.70;99.90
33428;DHT22;19769;48.150;16.306;2023-02-15T03:47:26;5.70;99.90
33428;DHT22;19769;48.150;16.306;2023-02-15T03:52:28;5.60;99.90
33428;DHT22;19769;48.150;16.306;2023-02-15T03:54:55;5.60;99.90
33428;DHT22;19769;48.150;16.306;2023-02-15T03:57:25;5.60;99.90
33428;DHT22;19769;48.150;16.306;2023-02-15T04:03:06;5.60;99.90
33428;DHT22;19769;48.150;16.306;2023-02-15T04:05:34;5.60;99.90
33428;DHT22;19769;48.150;16.306;2023-02-15T04:07:59;5.60;99.90
33428;DHT22;19769;48.150;16.306;2023-02-15T04:10:25;5.60;99.90
33428;DHT22;19769;48.150;16.306;2023-02-15T04:13:09;5.70;99.90
33428;DHT22;19769;48.150;16.306;2023-02-15T04:15:35;5.70;99.90
33428;DHT22;19769;48.150;16.306;2023-02-15T04:18:19;5.60;99.90
33428;DHT22;19769;48.150;16.306;2023-02-15T04:20:45;5.50;99.90
33428;DHT22;19769;48.150;16.306;2023-02-15T04:23:30;5.50;99.90
33428;DHT22;19769;48.150;16.306;2023-02-15T04:26:14;5.50;99.90
33428;DHT22;19769;48.150;16.306;2023-02-15T04:28:40;5.60;99.90
33428;DHT22;19769;48.150;16.306;2023-02-15T04:31:06;5.50;99.90
33428;DHT22;19769;48.150;16.306;2023-02-15T04:33:31;5.60;99.90
33428;DHT22;19769;48.150;16.306;2023-02-15T04:35:57;5.60;99.90
33428;DHT22;19769;48.150;16.306;2023-02-15T04:38:23;5.60;99.90
33428;DHT22;19769;48.150;16.306;2023-02-15T04:40:49;5.60;99.90
33428;DHT22;19769;48.150;16.306;2023-02-15T04:43:16;5.60;99.90
33428;DHT22;19769;48.150;16.306;2023-02-15T04:45:41;5.70;99.90
33428;DHT22;19769;48.150;16.306;2023-02-15T04:48:12;5.70;99.90
33428;DHT22;19769;48.150;16.306;2023-02-15T04:50:38;5.70;99.90
33428;DHT22;19769;48.150;16.306;2023-02-15T04:53:03;5.60;99.90
33428;DHT22;19769;48.150;16.306;2023-02-15T04:55:29;5.60;99.90
33428;DHT22;19769;48.150;16.306;2023-02-15T04:57:56;5.60;99.90
33428;DHT22;19769;48.150;16.306;2023-02-15T05:00:22;5.60;99.90
33428;DHT22;19769;48.150;16.306;2023-02-15T05:02:47;5.60;99.90
33428;DHT22;19769;48.150;16.306;2023-02-15T05:05:13;5.60;99.90
33428;DHT22;19769;48.150;16.306;2023-02-15T05:07:40;5.60;99.90
33428;DHT22;19769;48.150;16.306;2023-02-15T05:10:06;5.60;99.90
33428;DHT22;19769;48.150;16.306;2023-02-15T05:12:32;5.60;99.90
33428;DHT22;19769;48.150;16.306;2023-02-15T05:14:58;5.60;99.90
33428;DHT22;19769;48.150;16.306;2023-02-15T05:17:23;5.60;99.90
33428;DHT22;19769;48.150;16.306;2023-02-15T05:19:50;5.60;99.90
33428;DHT22;19769;48.150;16.306;2023-02-15T05:22:16;5.60;99.90
33428;DHT22;19769;48.150;16.306;2023-02-15T05:24:42;5.50;99.90
33428;DHT22;19769;48.150;16.306;2023-02-15T05:27:27;5.50;99.90
33428;DHT22;19769;48.150;16.306;2023-02-15T05:30:11;5.60;99.90
33428;DHT22;19769;48.150;16.306;2023-02-15T05:32:38;5.60;99.90
33428;DHT22;19769;48.150;16.306;2023-02-15T05:35:05;5.60;99.90
33428;DHT22;19769;48.150;16.306;2023-02-15T05:37:31;5.60;99.90
33428;DHT22;19769;48.150;16.306;2023-02-15T05:39:56;5.50;99.90
33428;DHT22;19769;48.150;16.306;2023-02-15T05:42:22;5.50;99.90
33428;DHT22;19769;48.150;16.306;2023-02-15T05:44:48;5.50;99.90
33428;DHT22;19769;48.150;16.306;2023-02-15T05:47:13;5.60;99.90
33428;DHT22;19769;48.150;16.306;2023-02-15T05:49:39;5.60;99.90
33428;DHT22;19769;48.150;16.306;2023-02-15T05:52:09;5.60;99.90
33428;DHT22;19769;48.150;16.306;2023-02-15T05:54:37;5.50;99.90
33428;DHT22;19769;48.150;16.306;2023-02-15T05:57:04;5.50;99.90
33428;DHT22;19769;48.150;16.306;2023-02-15T05:59:30;5.60;99.90
33428;DHT22;19769;48.150;16.306;2023-02-15T06:01:56;5.60;99.90
33428;DHT22;19769;48.150;16.306;2023-02-15T06:04:21;5.60;99.90
33428;DHT22;19769;48.150;16.306;2023-02-15T06:06:47;5.60;99.90
33428;DHT22;19769;48.150;16.306;2023-02-15T06:09:13;5.60;99.90
33428;DHT22;19769;48.150;16.306;2023-02-15T06:11:39;5.60;99.90
33428;DHT22;19769;48.150;16.306;2023-02-15T06:14:04;5.70;99.90
33428;DHT22;19769;48.150;16.306;2023-02-15T06:16:30;5.70;99.90
33428;DHT22;19769;48.150;16.306;2023-02-15T06:18:56;5.60;99.90
33428;DHT22;19769;48.150;16.306;2023-02-15T06:21:23;5.60;99.90
33428;DHT22;19769;48.150;16.306;2023-02-15T06:23:51;5.60;99.90
33428;DHT22;19769;48.150;16.306;2023-02-15T06:26:17;5.60;99.90
33428;DHT22;19769;48.150;16.306;2023-02-15T06:28:44;5.60;99.90
33428;DHT22;19769;48.150;16.306;2023-02-15T06:31:09;5.60;99.90
33428;DHT22;19769;48.150;16.306;2023-02-15T06:33:35;5.70;99.90
33428;DHT22;19769;48.150;16.306;2023-02-15T06:36:01;5.70;99.90
33428;DHT22;19769;48.150;16.306;2023-02-15T06:38:27;5.60;99.90
33428;DHT22;19769;48.150;16.306;2023-02-15T06:40:53;5.60;99.90
33428;DHT22;19769;48.150;16.306;2023-02-15T06:43:18;5.70;99.90
33428;DHT22;19769;48.150;16.306;2023-02-15T06:45:44;5.70;99.90
33428;DHT22;19769;48.150;16.306;2023-02-15T06:48:10;5.70;99.90
33428;DHT22;19769;48.150;16.306;2023-02-15T06:50:37;5.70;99.90
33428;DHT22;19769;48.150;16.306;2023-02-15T06:53:02;5.70;99.90
33428;DHT22;19769;48.150;16.306;2023-02-15T06:55:28;5.70;99.90
33428;DHT22;19769;48.150;16.306;2023-02-15T06:57:54;5.70;99.90
33428;DHT22;19769;48.150;16.306;2023-02-15T07:00:20;5.70;99.90
33428;DHT22;19769;48.150;16.306;2023-02-15T07:02:47;5.70;99.90
33428;DHT22;19769;48.150;16.306;2023-02-15T07:05:13;5.70;99.90
33428;DHT22;19769;48.150;16.306;2023-02-15T07:07:38;5.80;99.90
33428;DHT22;19769;48.150;16.306;2023-02-15T07:10:04;5.80;99.90
33428;DHT22;19769;48.150;16.306;2023-02-15T07:12:30;5.90;99.90
33428;DHT22;19769;48.150;16.306;2023-02-15T07:15:10;5.90;99.90
33428;DHT22;19769;48.150;16.306;2023-02-15T07:17:36;5.90;99.90
33428;DHT22;19769;48.150;16.306;2023-02-15T07:20:06;5.90;99.90
33428;DHT22;19769;48.150;16.306;2023-02-15T07:22:33;6.00;99.90
33428;DHT22;19769;48.150;16.306;2023-02-15T07:25:02;6.00;99.90
33428;DHT22;19769;48.150;16.306;2023-02-15T07:27:28;6.00;99.90
33428;DHT22;19769;48.150;16.306;2023-02-15T07:29:54;5.90;99.90
33428;DHT22;19769;48.150;16.306;2023-02-15T07:32:20;5.90;99.90
33428;DHT22;19769;48.150;16.306;2023-02-15T07:34:46;5.80;99.90
33428;DHT22;19769;48.150;16.306;2023-02-15T07:37:11;5.90;99.90
33428;DHT22;19769;48.150;16.306;2023-02-15T07:39:37;5.90;99.90
33428;DHT22;19769;48.150;16.306;2023-02-15T07:42:03;6.00;99.90
33428;DHT22;19769;48.150;16.306;2023-02-15T07:44:30;5.90;99.90
33428;DHT22;19769;48.150;16.306;2023-02-15T07:46:56;6.00;99.90
33428;DHT22;19769;48.150;16.306;2023-02-15T07:49:22;6.00;99.90
33428;DHT22;19769;48.150;16.306;2023-02-15T07:51:48;6.00;99.90
33428;DHT22;19769;48.150;16.306;2023-02-15T07:54:14;6.00;99.90
33428;DHT22;19769;48.150;16.306;2023-02-15T07:56:39;6.00;99.90
33428;DHT22;19769;48.150;16.306;2023-02-15T07:59:05;6.00;99.90
33428;DHT22;19769;48.150;16.306;2023-02-15T08:01:37;6.00;99.90
33428;DHT22;19769;48.150;16.306;2023-02-15T08:04:04;6.00;99.90
33428;DHT22;19769;48.150;16.306;2023-02-15T08:06:34;6.10;99.90
33428;DHT22;19769;48.150;16.306;2023-02-15T08:09:01;6.10;99.90
33428;DHT22;19769;48.150;16.306;2023-02-15T08:11:28;6.10;99.90
33428;DHT22;19769;48.150;16.306;2023-02-15T08:13:59;6.20;99.90
33428;DHT22;19769;48.150;16.306;2023-02-15T08:18:51;6.10;99.90
33428;DHT22;19769;48.150;16.306;2023-02-15T08:21:18;6.20;99.90
33428;DHT22;19769;48.150;16.306;2023-02-15T08:23:44;6.20;99.90
33428;DHT22;19769;48.150;16.306;2023-02-15T08:26:09;6.20;99.90
33428;DHT22;19769;48.150;16.306;2023-02-15T08:28:35;6.30;99.90
33428;DHT22;19769;48.150;16.306;2023-02-15T08:31:11;6.30;99.90
33428;DHT22;19769;48.150;16.306;2023-02-15T08:33:38;6.30;99.90
33428;DHT22;19769;48.150;16.306;2023-02-15T08:36:14;6.30;99.90
33428;DHT22;19769;48.150;16.306;2023-02-15T08:38:40;6.30;99.90
33428;DHT22;19769;48.150;16.306;2023-02-15T08:43:34;6.40;99.90
33428;DHT22;19769;48.150;16.306;2023-02-15T08:46:00;6.40;99.90
33428;DHT22;19769;48.150;16.306;2023-02-15T08:48:26;6.40;99.90
33428;DHT22;19769;48.150;16.306;2023-02-15T08:50:51;6.40;99.90
33428;DHT22;19769;48.150;16.306;2023-02-15T08:53:17;6.40;99.90
33428;DHT22;19769;48.150;16.306;2023-02-15T08:55:57;6.40;99.90
33428;DHT22;19769;48.150;16.306;2023-02-15T08:58:23;6.50;99.90
33428;DHT22;19769;48.150;16.306;2023-02-15T09:00:49;6.40;99.90
33428;DHT22;19769;48.150;16.306;2023-02-15T09:03:15;6.40;99.90
33428;DHT22;19769;48.150;16.306;2023-02-15T09:05:41;6.50;99.90
33428;DHT22;19769;48.150;16.306;2023-02-15T09:08:06;6.50;99.90
33428;DHT22;19769;48.150;16.306;2023-02-15T09:10:32;6.60;99.90
33428;DHT22;19769;48.150;16.306;2023-02-15T09:12:58;6.60;99.90
33428;DHT22;19769;48.150;16.306;2023-02-15T09:15:23;6.60;99.90
33428;DHT22;19769;48.150;16.306;2023-02-15T09:17:49;6.60;99.90
33428;DHT22;19769;48.150;16.306;2023-02-15T09:20:15;6.60;99.90
33428;DHT22;19769;48.150;16.306;2023-02-15T09:22:41;6.60;99.90
33428;DHT22;19769;48.150;16.306;2023-02-15T09:25:07;6.60;99.90
33428;DHT22;19769;48.150;16.306;2023-02-15T09:27:32;6.70;99.90
33428;DHT22;19769;48.150;16.306;2023-02-15T09:29:58;6.60;99.90
33428;DHT22;19769;48.150;16.306;2023-02-15T09:32:24;6.60;99.90
33428;DHT22;19769;48.150;16.306;2023-02-15T09:34:50;6.60;99.90
33428;DHT22;19769;48.150;16.306;2023-02-15T09:37:16;6.70;99.90
33428;DHT22;19769;48.150;16.306;2023-02-15T09:39:42;6.80;99.90
33428;DHT22;19769;48.150;16.306;2023-02-15T09:42:22;6.80;99.90
33428;DHT22;19769;48.150;16.306;2023-02-15T09:50:00;7.10;99.90
33428;DHT22;19769;48.150;16.306;2023-02-15T10:05:16;7.20;99.90
33428;DHT22;19769;48.150;16.306;2023-02-15T10:10:34;7.40;99.90
33428;DHT22;19769;48.150;16.306;2023-02-15T10:27:50;7.50;99.90
33428;DHT22;19769;48.150;16.306;2023-02-15T10:33:05;7.60;99.90
33428;DHT22;19769;48.150;16.306;2023-02-15T11:17:23;7.80;99.90
33428;DHT22;19769;48.150;16.306;2023-02-15T11:22:16;7.80;99.90
33428;DHT22;19769;48.150;16.306;2023-02-15T11:24:43;7.80;99.90
33428;DHT22;19769;48.150;16.306;2023-02-15T11:27:21;7.90;99.90
33428;DHT22;19769;48.150;16.306;2023-02-15T11:30:04;8.00;99.90
33428;DHT22;19769;48.150;16.306;2023-02-15T11:32:38;8.00;99.90
33428;DHT22;19769;48.150;16.306;2023-02-15T11:37:35;8.00;99.90
33428;DHT22;19769;48.150;16.306;2023-02-15T11:40:02;8.00;99.90
33428;DHT22;19769;48.150;16.306;2023-02-15T11:42:32;8.00;99.90
33428;DHT22;19769;48.150;16.306;2023-02-15T11:45:07;8.00;99.90
33428;DHT22;19769;48.150;16.306;2023-02-15T11:47:42;7.90;99.90
33428;DHT22;19769;48.150;16.306;2023-02-15T11:50:13;7.70;99.90
33428;DHT22;19769;48.150;16.306;2023-02-15T11:52:40;7.70;99.90
33428;DHT22;19769;48.150;16.306;2023-02-15T11:55:19;7.80;99.90
33428;DHT22;19769;48.150;16.306;2023-02-15T11:57:47;7.90;99.90
33428;DHT22;19769;48.150;16.306;2023-02-15T12:00:35;8.00;99.90
33428;DHT22;19769;48.150;16.306;2023-02-15T12:03:07;8.10;99.90
33428;DHT22;19769;48.150;16.306;2023-02-15T12:05:35;8.30;99.90
33428;DHT22;19769;48.150;16.306;2023-02-15T12:08:03;8.30;99.90
33428;DHT22;19769;48.150;16.306;2023-02-15T12:10:36;8.30;99.90
33428;DHT22;19769;48.150;16.306;2023-02-15T12:13:14;8.40;99.90
33428;DHT22;19769;48.150;16.306;2023-02-15T12:15:41;8.40;99.90
33428;DHT22;19769;48.150;16.306;2023-02-15T12:18:17;8.40;99.90
33428;DHT22;19769;48.150;16.306;2023-02-15T12:20:44;8.50;99.90
33428;DHT22;19769;48.150;16.306;2023-02-15T12:23:13;8.60;99.90
33428;DHT22;19769;48.150;16.306;2023-02-15T12:25:40;8.60;99.90
33428;DHT22;19769;48.150;16.306;2023-02-15T12:31:02;8.90;99.90
33428;DHT22;19769;48.150;16.306;2023-02-15T12:33:30;9.20;99.90
33428;DHT22;19769;48.150;16.306;2023-02-15T12:38:24;9.50;99.90
33428;DHT22;19769;48.150;16.306;2023-02-15T12:41:03;10.00;99.60
33428;DHT22;19769;48.150;16.306;2023-02-15T12:58:16;10.50;97.00
33428;DHT22;19769;48.150;16.306;2023-02-15T13:00:43;11.00;97.00
33428;DHT22;19769;48.150;16.306;2023-02-15T13:03:18;10.80;95.30
33428;DHT22;19769;48.150;16.306;2023-02-15T13:05:50;10.90;94.00
33428;DHT22;19769;48.150;16.306;2023-02-15T13:08:18;11.10;94.20
33428;DHT22;19769;48.150;16.306;2023-02-15T13:10:56;11.10;93.50
33428;DHT22;19769;48.150;16.306;2023-02-15T13:13:24;11.10;92.70
33428;DHT22;19769;48.150;16.306;2023-02-15T13:15:50;11.10;92.00
33428;DHT22;19769;48.150;16.306;2023-02-15T13:23:20;11.20;91.50
33428;DHT22;19769;48.150;16.306;2023-02-15T13:28:16;12.80;84.00
33428;DHT22;19769;48.150;16.306;2023-02-15T13:30:44;15.00;72.30
33428;DHT22;19769;48.150;16.306;2023-02-15T14:10:05;27.80;31.50
33428;DHT22;19769;48.150;16.306;2023-02-15T14:15:10;28.20;30.80
33428;DHT22;19769;48.150;16.306;2023-02-15T14:25:42;27.60;30.80
33428;DHT22;19769;48.150;16.306;2023-02-15T14:28:14;27.20;31.90
33428;DHT22;19769;48.150;16.306;2023-02-15T14:30:43;26.60;31.50
33428;DHT22;19769;48.150;16.306;2023-02-15T14:35:36;24.20;33.50
33428;DHT22;19769;48.150;16.306;2023-02-15T14:43:41;17.00;44.80
33428;DHT22;19769;48.150;16.306;2023-02-15T14:46:14;14.50;50.50
33428;DHT22;19769;48.150;16.306;2023-02-15T14:48:56;13.40;52.70
33428;DHT22;19769;48.150;16.306;2023-02-15T15:18:47;12.80;54.60
33428;DHT22;19769;48.150;16.306;2023-02-15T15:36:44;8.50;99.00
33428;DHT22;19769;48.150;16.306;2023-02-15T15:45:08;8.30;99.90
33428;DHT22;19769;48.150;16.306;2023-02-15T15:47:49;8.20;99.90
33428;DHT22;19769;48.150;16.306;2023-02-15T15:50:19;8.00;99.90
33428;DHT22;19769;48.150;16.306;2023-02-15T15:52:58;7.90;99.90
33428;DHT22;19769;48.150;16.306;2023-02-15T15:55:25;7.80;99.90
33428;DHT22;19769;48.150;16.306;2023-02-15T15:57:53;7.70;99.90
33428;DHT22;19769;48.150;16.306;2023-02-15T16:00:24;7.60;99.90
33428;DHT22;19769;48.150;16.306;2023-02-15T16:02:51;7.50;99.90
33428;DHT22;19769;48.150;16.306;2023-02-15T16:05:19;7.40;99.90
33428;DHT22;19769;48.150;16.306;2023-02-15T16:07:45;7.30;99.90
33428;DHT22;19769;48.150;16.306;2023-02-15T16:10:22;7.30;99.90
33428;DHT22;19769;48.150;16.306;2023-02-15T16:12:49;7.20;99.90
33428;DHT22;19769;48.150;16.306;2023-02-15T16:17:49;7.10;99.90
33428;DHT22;19769;48.150;16.306;2023-02-15T16:20:17;7.20;99.90
33428;DHT22;19769;48.150;16.306;2023-02-15T17:28:53;7.30;99.90
33428;DHT22;19769;48.150;16.306;2023-02-15T17:31:21;5.70;99.90
33428;DHT22;19769;48.150;16.306;2023-02-15T17:36:20;5.60;99.90
33428;DHT22;19769;48.150;16.306;2023-02-15T17:41:37;5.50;99.90
33428;DHT22;19769;48.150;16.306;2023-02-15T17:44:04;5.40;99.90
33428;DHT22;19769;48.150;16.306;2023-02-15T17:46:35;5.40;99.90
33428;DHT22;19769;48.150;16.306;2023-02-15T17:49:02;5.30;99.90
33428;DHT22;19769;48.150;16.306;2023-02-15T17:51:30;5.30;99.90
33428;DHT22;19769;48.150;16.306;2023-02-15T18:24:57;5.20;99.90
33428;DHT22;19769;48.150;16.306;2023-02-15T18:27:23;4.90;99.90
33428;DHT22;19769;48.150;16.306;2023-02-15T18:29:49;4.90;99.90
33428;DHT22;19769;48.150;16.306;2023-02-15T18:32:18;4.90;99.90
33428;DHT22;19769;48.150;16.306;2023-02-15T18:34:47;4.80;99.90
33428;DHT22;19769;48.150;16.306;2023-02-15T18:37:16;4.80;99.90
33428;DHT22;19769;48.150;16.306;2023-02-15T18:39:47;4.80;99.90
33428;DHT22;19769;48.150;16.306;2023-02-15T18:42:30;4.70;99.90
33428;DHT22;19769;48.150;16.306;2023-02-15T18:44:58;4.70;99.90
33428;DHT22;19769;48.150;16.306;2023-02-15T18:47:25;4.70;99.90
33428;DHT22;19769;48.150;16.306;2023-02-15T18:49:51;4.70;99.90
33428;DHT22;19769;48.150;16.306;2023-02-15T18:52:20;4.70;99.90
33428;DHT22;19769;48.150;16.306;2023-02-15T18:54:50;4.70;99.90
33428;DHT22;19769;48.150;16.306;2023-02-15T18:57:22;4.60;99.90
33428;DHT22;19769;48.150;16.306;2023-02-15T18:59:49;4.50;99.90
33428;DHT22;19769;48.150;16.306;2023-02-15T19:02:16;4.50;99.90
33428;DHT22;19769;48.150;16.306;2023-02-15T19:04:43;4.50;99.90
33428;DHT22;19769;48.150;16.306;2023-02-15T19:07:27;4.50;99.90
33428;DHT22;19769;48.150;16.306;2023-02-15T19:09:57;4.50;99.90
33428;DHT22;19769;48.150;16.306;2023-02-15T19:12:26;4.50;99.90
33428;DHT22;19769;48.150;16.306;2023-02-15T19:14:53;4.40;99.90
33428;DHT22;19769;48.150;16.306;2023-02-15T19:17:21;4.40;99.90
33428;DHT22;19769;48.150;16.306;2023-02-15T19:19:50;4.40;99.90
33428;DHT22;19769;48.150;16.306;2023-02-15T19:22:26;4.30;99.90
33428;DHT22;19769;48.150;16.306;2023-02-15T19:24:54;4.20;99.90
33428;DHT22;19769;48.150;16.306;2023-02-15T19:27:26;4.20;99.90
33428;DHT22;19769;48.150;16.306;2023-02-15T19:29:54;4.20;99.90
33428;DHT22;19769;48.150;16.306;2023-02-15T19:32:21;4.20;99.90
33428;DHT22;19769;48.150;16.306;2023-02-15T19:34:48;4.20;99.90
33428;DHT22;19769;48.150;16.306;2023-02-15T19:37:32;4.10;99.90
33428;DHT22;19769;48.150;16.306;2023-02-15T19:39:59;4.10;99.90
33428;DHT22;19769;48.150;16.306;2023-02-15T19:42:27;4.20;99.90
33428;DHT22;19769;48.150;16.306;2023-02-15T19:44:55;4.10;99.90
33428;DHT22;19769;48.150;16.306;2023-02-15T19:47:23;4.10;99.90
33428;DHT22;19769;48.150;16.306;2023-02-15T19:49:50;4.10;99.90
33428;DHT22;19769;48.150;16.306;2023-02-15T19:52:25;4.10;99.90
33428;DHT22;19769;48.150;16.306;2023-02-15T19:54:52;4.00;99.90
33428;DHT22;19769;48.150;16.306;2023-02-15T19:57:23;4.00;99.90
33428;DHT22;19769;48.150;16.306;2023-02-15T19:59:49;4.00;99.90
33428;DHT22;19769;48.150;16.306;2023-02-15T20:02:24;4.00;99.90
33428;DHT22;19769;48.150;16.306;2023-02-15T20:04:54;3.90;99.90
33428;DHT22;19769;48.150;16.306;2023-02-15T20:07:27;4.00;99.90
33428;DHT22;19769;48.150;16.306;2023-02-15T20:09:54;3.90;99.90
33428;DHT22;19769;48.150;16.306;2023-02-15T20:12:21;3.90;99.90
33428;DHT22;19769;48.150;16.306;2023-02-15T20:14:48;3.80;99.90
33428;DHT22;19769;48.150;16.306;2023-02-15T20:17:15;3.80;99.90
33428;DHT22;19769;48.150;16.306;2023-02-15T20:19:45;3.80;99.90
33428;DHT22;19769;48.150;16.306;2023-02-15T20:22:24;3.70;99.90
33428;DHT22;19769;48.150;16.306;2023-02-15T20:24:54;3.70;99.90
33428;DHT22;19769;48.150;16.306;2023-02-15T20:27:22;3.70;99.90
33428;DHT22;19769;48.150;16.306;2023-02-15T20:29:53;3.70;99.90
33428;DHT22;19769;48.150;16.306;2023-02-15T20:32:21;3.60;99.90
33428;DHT22;19769;48.150;16.306;2023-02-15T20:34:48;3.60;99.90
33428;DHT22;19769;48.150;16.306;2023-02-15T20:37:22;3.60;99.90
33428;DHT22;19769;48.150;16.306;2023-02-15T20:39:51;3.70;99.90
33428;DHT22;19769;48.150;16.306;2023-02-15T20:42:20;3.60;99.90
33428;DHT22;19769;48.150;16.306;2023-02-15T20:44:53;3.60;99.90
33428;DHT22;19769;48.150;16.306;2023-02-15T20:47:20;3.60;99.90
33428;DHT22;19769;48.150;16.306;2023-02-15T20:49:46;3.60;99.90
33428;DHT22;19769;48.150;16.306;2023-02-15T20:52:17;3.60;99.90
33428;DHT22;19769;48.150;16.306;2023-02-15T20:54:44;3.60;99.90
33428;DHT22;19769;48.150;16.306;2023-02-15T20:57:11;3.60;99.90
33428;DHT22;19769;48.150;16.306;2023-02-15T20:59:38;3.50;99.90
33428;DHT22;19769;48.150;16.306;2023-02-15T21:02:18;3.60;99.90
33428;DHT22;19769;48.150;16.306;2023-02-15T21:04:49;3.50;99.90
33428;DHT22;19769;48.150;16.306;2023-02-15T21:07:19;3.40;99.90
33428;DHT22;19769;48.150;16.306;2023-02-15T21:09:46;3.40;99.90
33428;DHT22;19769;48.150;16.306;2023-02-15T21:12:13;3.40;99.90
33428;DHT22;19769;48.150;16.306;2023-02-15T21:14:40;3.30;99.90
33428;DHT22;19769;48.150;16.306;2023-02-15T21:17:09;3.30;99.90
33428;DHT22;19769;48.150;16.306;2023-02-15T21:19:36;3.30;99.90
33428;DHT22;19769;48.150;16.306;2023-02-15T21:22:03;3.30;99.90
33428;DHT22;19769;48.150;16.306;2023-02-15T21:24:29;3.20;99.90
33428;DHT22;19769;48.150;16.306;2023-02-15T21:26:55;3.20;99.90
33428;DHT22;19769;48.150;16.306;2023-02-15T21:29:26;3.30;99.90
33428;DHT22;19769;48.150;16.306;2023-02-15T21:31:54;3.20;99.90
33428;DHT22;19769;48.150;16.306;2023-02-15T21:34:23;3.20;99.90
33428;DHT22;19769;48.150;16.306;2023-02-15T21:36:49;3.30;99.90
33428;DHT22;19769;48.150;16.306;2023-02-15T21:39:20;3.30;99.90
33428;DHT22;19769;48.150;16.306;2023-02-15T21:41:47;3.20;99.90
33428;DHT22;19769;48.150;16.306;2023-02-15T21:44:32;3.30;99.90